createdAt,value
2019-02-18T00:00:38.926Z,100359.42
2019-02-18T00:03:08.885Z,100352.71
2019-02-18T00:05:37.561Z,100356.99
2019-02-18T00:08:06.456Z,100347.73
2019-02-18T00:10:35.181Z,100343.09
2019-02-18T00:13:04.027Z,100348.17
2019-02-18T00:15:32.704Z,100348.48
2019-02-18T00:18:01.600Z,100346.93
2019-02-18T00:20:30.492Z,100340.12
2019-02-18T00:22:59.127Z,100341.17
2019-02-18T00:25:28.061Z,100342.63
2019-02-18T00:27:56.850Z,100334.02
2019-02-18T00:30:25.576Z,100341.59
2019-02-18T00:32:54.216Z,100334.28
2019-02-18T00:35:23.201Z,100337.27
2019-02-18T00:37:51.986Z,100330.91
2019-02-18T00:40:20.886Z,100327.08
2019-02-18T00:42:49.522Z,100328.48
2019-02-18T00:45:18.466Z,100330.66
2019-02-18T00:47:48.227Z,100325.61
2019-02-18T00:50:17.366Z,100328.37
2019-02-18T00:52:46.049Z,100326.48
2019-02-18T00:55:14.938Z,100323.94
2019-02-18T00:57:43.655Z,100320.66
2019-02-18T01:00:15.658Z,100320.41
2019-02-18T01:02:44.583Z,100320.47
2019-02-18T01:05:13.672Z,100312.25
2019-02-18T01:07:42.378Z,100312.80
2019-02-18T01:10:12.888Z,100311.94
2019-02-18T01:12:41.586Z,100306.84
2019-02-18T01:15:14.863Z,100301.92
2019-02-18T01:17:43.517Z,100302.55
2019-02-18T01:20:14.070Z,100297.34
2019-02-18T01:22:42.763Z,100296.44
2019-02-18T01:25:13.262Z,100302.17
2019-02-18T01:27:42.257Z,100297.53
2019-02-18T01:30:16.432Z,100291.34
2019-02-18T01:32:45.101Z,100287.62
2019-02-18T01:35:14.178Z,100280.75
2019-02-18T01:37:45.876Z,100283.68
2019-02-18T01:40:16.638Z,100279.55
2019-02-18T01:42:45.431Z,100275.71
2019-02-18T01:45:14.818Z,100271.77
2019-02-18T01:47:43.726Z,100264.57
2019-02-18T01:50:14.388Z,100267.05
2019-02-18T01:52:43.102Z,100264.08
2019-02-18T01:55:13.503Z,100267.61
2019-02-18T01:57:42.455Z,100265.38
2019-02-18T02:00:16.360Z,100265.74
2019-02-18T02:02:45.149Z,100270.08
2019-02-18T02:05:15.925Z,100264.57
2019-02-18T02:07:55.445Z,100267.28
2019-02-18T02:10:16.310Z,100265.12
2019-02-18T02:12:45.205Z,100262.20
2019-02-18T02:15:26.070Z,100263.22
2019-02-18T02:17:54.754Z,100255.91
2019-02-18T02:20:23.385Z,100265.05
2019-02-18T02:22:52.240Z,100269.82
2019-02-18T02:25:20.947Z,100262.93
2019-02-18T02:27:49.747Z,100262.45
2019-02-18T02:30:18.594Z,100259.03
2019-02-18T02:32:47.385Z,100256.10
2019-02-18T02:35:16.019Z,100255.81
2019-02-18T02:37:45.061Z,100250.17
2019-02-18T02:40:13.740Z,100247.66
2019-02-18T02:42:42.632Z,100245.75
2019-02-18T02:45:11.335Z,100244.16
2019-02-18T02:47:40.206Z,100245.62
2019-02-18T02:50:09.255Z,100245.31
2019-02-18T02:52:38.075Z,100240.67
2019-02-18T02:55:07.167Z,100240.42
2019-02-18T02:57:36.065Z,100242.66
2019-02-18T03:00:08.632Z,100238.99
2019-02-18T03:02:37.534Z,100233.31
2019-02-18T03:05:06.931Z,100233.31
2019-02-18T03:07:35.576Z,100235.62
2019-02-18T03:10:07.068Z,100236.03
2019-02-18T03:12:35.840Z,100234.02
2019-02-18T03:15:07.611Z,100235.73
2019-02-18T03:17:36.295Z,100234.24
2019-02-18T03:20:07.489Z,100238.13
2019-02-18T03:22:36.837Z,100237.22
2019-02-18T03:25:20.062Z,100239.61
2019-02-18T03:27:51.713Z,100240.97
2019-02-18T03:30:39.029Z,100241.79
2019-02-18T03:33:10.347Z,100237.09
2019-02-18T03:35:39.268Z,100236.28
2019-02-18T03:38:07.980Z,100235.36
2019-02-18T03:40:36.935Z,100232.54
2019-02-18T03:43:05.621Z,100230.81
2019-02-18T03:45:34.417Z,100233.36
2019-02-18T03:48:03.087Z,100236.59
2019-02-18T03:50:31.718Z,100232.02
2019-02-18T03:53:00.577Z,100223.61
2019-02-18T03:55:29.202Z,100223.75
2019-02-18T03:57:57.880Z,100221.45
2019-02-18T04:00:26.532Z,100222.50
2019-02-18T04:02:55.407Z,100229.41
2019-02-18T04:05:24.195Z,100230.17
2019-02-18T04:07:52.940Z,100233.39
2019-02-18T04:10:21.647Z,100227.77
2019-02-18T04:12:50.560Z,100223.55
2019-02-18T04:15:19.341Z,100221.95
2019-02-18T04:17:48.230Z,100217.91
2019-02-18T04:20:16.939Z,100218.59
2019-02-18T04:22:45.742Z,100220.31
2019-02-18T04:25:14.590Z,100216.80
2019-02-18T04:27:43.247Z,100219.05
2019-02-18T04:30:13.741Z,100216.77
2019-02-18T04:32:42.855Z,100224.27
2019-02-18T04:35:11.680Z,100223.48
2019-02-18T04:37:40.578Z,100222.48
2019-02-18T04:40:09.990Z,100222.55
2019-02-18T04:42:38.705Z,100219.38
2019-02-18T04:45:10.098Z,100224.22
2019-02-18T04:47:38.791Z,100215.80
2019-02-18T04:50:09.274Z,100213.06
2019-02-18T04:52:38.057Z,100209.03
2019-02-18T04:55:10.180Z,100207.20
2019-02-18T04:57:38.892Z,100200.59
2019-02-18T05:00:09.719Z,100202.74
2019-02-18T05:02:38.773Z,100199.54
2019-02-18T05:05:11.053Z,100201.61
2019-02-18T05:07:39.825Z,100199.94
2019-02-18T05:10:10.540Z,100199.56
2019-02-18T05:12:39.345Z,100204.22
2019-02-18T05:15:09.735Z,100201.59
2019-02-18T05:17:38.547Z,100192.38
2019-02-18T05:20:08.740Z,100195.20
2019-02-18T05:22:37.416Z,100194.27
2019-02-18T05:25:07.949Z,100184.25
2019-02-18T05:27:37.098Z,100186.50
2019-02-18T05:30:10.535Z,100193.48
2019-02-18T05:32:39.365Z,100197.65
2019-02-18T05:35:08.462Z,100202.12
2019-02-18T05:37:37.374Z,100201.59
2019-02-18T05:40:08.410Z,100207.88
2019-02-18T05:42:37.491Z,100202.84
2019-02-18T05:45:08.545Z,100195.55
2019-02-18T05:47:37.341Z,100194.78
2019-02-18T05:50:08.309Z,100196.11
2019-02-18T05:52:37.097Z,100203.97
2019-02-18T05:55:07.499Z,100200.68
2019-02-18T05:57:36.360Z,100207.16
2019-02-18T06:00:08.624Z,100202.95
2019-02-18T06:02:37.515Z,100199.43
2019-02-18T06:05:07.497Z,100202.77
2019-02-18T06:07:36.180Z,100212.70
2019-02-18T06:10:07.975Z,100209.39
2019-02-18T06:12:36.868Z,100212.56
2019-02-18T06:15:08.553Z,100214.06
2019-02-18T06:17:37.271Z,100219.03
2019-02-18T06:20:08.821Z,100218.78
2019-02-18T06:22:38.575Z,100220.87
2019-02-18T06:25:07.824Z,100217.95
2019-02-18T06:27:36.615Z,100225.95
2019-02-18T06:30:07.335Z,100230.18
2019-02-18T06:32:36.151Z,100232.98
2019-02-18T06:35:06.217Z,100235.82
2019-02-18T06:37:34.849Z,100238.84
2019-02-18T06:40:03.821Z,100241.91
2019-02-18T06:42:32.625Z,100244.53
2019-02-18T06:45:03.052Z,100243.50
2019-02-18T06:47:31.819Z,100241.39
2019-02-18T06:50:00.615Z,100240.66
2019-02-18T06:52:29.525Z,100244.26
2019-02-18T06:54:58.218Z,100239.63
2019-02-18T06:57:28.625Z,100245.00
2019-02-18T06:59:57.420Z,100243.06
2019-02-18T07:02:33.880Z,100247.14
2019-02-18T07:05:13.321Z,100247.25
2019-02-18T07:07:43.660Z,100240.59
2019-02-18T07:10:30.476Z,100244.27
2019-02-18T07:12:59.182Z,100243.50
2019-02-18T07:15:27.979Z,100242.58
2019-02-18T07:17:56.926Z,100247.39
2019-02-18T07:20:26.011Z,100244.02
2019-02-18T07:22:54.703Z,100247.97
2019-02-18T07:25:23.501Z,100246.11
2019-02-18T07:27:52.371Z,100243.51
2019-02-18T07:30:21.098Z,100238.35
2019-02-18T07:32:49.907Z,100240.20
2019-02-18T07:35:18.674Z,100243.67
2019-02-18T07:37:47.509Z,100241.59
2019-02-18T07:40:16.401Z,100246.07
2019-02-18T07:42:45.096Z,100242.73
2019-02-18T07:45:13.897Z,100244.16
2019-02-18T07:47:42.700Z,100242.14
2019-02-18T07:50:20.371Z,100243.09
2019-02-18T07:52:41.969Z,100243.19
2019-02-18T07:55:10.696Z,100243.73
2019-02-18T07:57:39.496Z,100235.11
2019-02-18T08:00:13.820Z,100239.16
2019-02-18T08:02:43.272Z,100227.92
2019-02-18T08:05:11.975Z,100234.46
2019-02-18T08:07:40.944Z,100226.66
2019-02-18T08:10:12.522Z,100222.30
2019-02-18T08:12:41.692Z,100221.00
2019-02-18T08:15:11.703Z,100223.15
2019-02-18T08:17:40.467Z,100215.28
2019-02-18T08:20:11.496Z,100213.48
2019-02-18T08:22:40.420Z,100210.79
2019-02-18T08:25:13.724Z,100219.86
2019-02-18T08:27:42.376Z,100214.55
2019-02-18T08:30:15.660Z,100217.02
2019-02-18T08:32:44.465Z,100219.08
2019-02-18T08:35:13.261Z,100217.59
2019-02-18T08:37:41.918Z,100220.88
2019-02-18T08:40:10.943Z,100220.23
2019-02-18T08:42:39.648Z,100214.44
2019-02-18T08:45:11.686Z,100216.77
2019-02-18T08:47:40.456Z,100213.42
2019-02-18T08:50:11.816Z,100215.69
2019-02-18T08:52:40.616Z,100214.55
2019-02-18T08:55:11.991Z,100207.69
2019-02-18T08:57:40.729Z,100210.94
2019-02-18T09:00:12.787Z,100211.97
2019-02-18T09:02:41.575Z,100220.75
2019-02-18T09:05:10.628Z,100215.41
2019-02-18T09:07:39.886Z,100212.89
2019-02-18T09:10:11.821Z,100212.64
2019-02-18T09:12:40.735Z,100204.66
2019-02-18T09:15:13.933Z,100210.63
2019-02-18T09:17:41.738Z,100214.45
2019-02-18T09:20:10.870Z,100201.47
2019-02-18T09:22:44.136Z,100198.39
2019-02-18T09:25:17.417Z,100202.09
2019-02-18T09:27:46.359Z,100196.18
2019-02-18T09:30:16.605Z,100192.19
2019-02-18T09:32:45.456Z,100203.16
2019-02-18T09:35:14.428Z,100204.72
2019-02-18T09:37:43.440Z,100198.08
2019-02-18T09:40:12.461Z,100198.84
2019-02-18T09:42:41.316Z,100190.92
2019-02-18T09:45:14.658Z,100192.80
2019-02-18T09:47:43.097Z,100196.74
2019-02-18T09:50:12.197Z,100201.48
2019-02-18T09:52:40.952Z,100198.97
2019-02-18T09:55:11.400Z,100189.05
2019-02-18T09:57:40.136Z,100193.79
2019-02-18T10:00:11.177Z,100196.29
2019-02-18T10:02:40.006Z,100195.41
2019-02-18T10:05:09.096Z,100191.78
2019-02-18T10:07:37.908Z,100192.03
2019-02-18T10:10:10.857Z,100189.84
2019-02-18T10:12:39.660Z,100194.60
2019-02-18T10:15:11.115Z,100191.11
2019-02-18T10:17:39.763Z,100187.10
2019-02-18T10:20:11.881Z,100181.08
2019-02-18T10:22:40.648Z,100184.23
2019-02-18T10:25:12.734Z,100178.56
2019-02-18T10:27:41.837Z,100174.15
2019-02-18T10:30:12.136Z,100165.53
2019-02-18T10:32:41.035Z,100166.00
2019-02-18T10:35:15.235Z,100165.89
2019-02-18T10:37:44.116Z,100171.63
2019-02-18T10:40:13.215Z,100168.77
2019-02-18T10:42:41.850Z,100165.75
2019-02-18T10:45:12.821Z,100169.06
2019-02-18T10:47:41.497Z,100163.44
2019-02-18T10:50:11.886Z,100157.27
2019-02-18T10:52:40.670Z,100158.92
2019-02-18T10:55:11.342Z,100153.78
2019-02-18T10:57:40.464Z,100150.11
2019-02-18T11:00:16.002Z,100148.28
2019-02-18T11:02:45.204Z,100147.03
2019-02-18T11:05:13.905Z,100144.96
2019-02-18T11:07:42.584Z,100141.22
2019-02-18T11:10:14.372Z,100133.09
2019-02-18T11:12:43.177Z,100129.66
2019-02-18T11:15:13.581Z,100127.45
2019-02-18T11:17:42.624Z,100120.45
2019-02-18T11:20:12.779Z,100118.61
2019-02-18T11:22:41.468Z,100116.84
2019-02-18T11:25:15.245Z,100121.23
2019-02-18T11:27:43.477Z,100112.05
2019-02-18T11:30:15.123Z,100114.08
2019-02-18T11:32:44.146Z,100105.98
2019-02-18T11:35:13.049Z,100108.38
2019-02-18T11:37:41.739Z,100109.48
2019-02-18T11:40:17.576Z,100102.73
2019-02-18T11:42:46.477Z,100100.08
2019-02-18T11:45:16.779Z,100097.32
2019-02-18T11:47:45.692Z,100093.41
2019-02-18T11:50:15.698Z,100088.64
2019-02-18T11:52:44.458Z,100090.88
2019-02-18T11:55:14.442Z,100090.01
2019-02-18T11:57:44.109Z,100083.70
2019-02-18T12:00:14.700Z,100085.38
2019-02-18T12:02:43.501Z,100082.25
2019-02-18T12:05:12.451Z,100074.41
2019-02-18T12:07:41.506Z,100069.05
2019-02-18T12:10:11.886Z,100063.98
2019-02-18T12:12:40.949Z,100066.97
2019-02-18T12:15:14.626Z,100063.43
2019-02-18T12:17:43.765Z,100060.98
2019-02-18T12:20:17.057Z,100054.14
2019-02-18T12:22:46.097Z,100055.29
2019-02-18T12:25:14.868Z,100057.70
2019-02-18T12:27:43.976Z,100049.96
2019-02-18T12:30:14.859Z,100053.44
2019-02-18T12:32:43.888Z,100050.13
2019-02-18T12:35:13.116Z,100041.88
2019-02-18T12:37:42.096Z,100034.65
2019-02-18T12:40:13.545Z,100030.70
2019-02-18T12:42:42.757Z,100031.97
2019-02-18T12:45:12.962Z,100028.39
2019-02-18T12:47:41.738Z,100030.03
2019-02-18T12:50:11.890Z,100021.98
2019-02-18T12:52:40.619Z,100021.48
2019-02-18T12:55:11.094Z,100019.53
2019-02-18T12:57:40.138Z,100007.70
2019-02-18T13:00:13.882Z,100011.70
2019-02-18T13:02:44.901Z,100002.24
2019-02-18T13:05:14.325Z,100005.06
2019-02-18T13:07:43.072Z,99994.44
2019-02-18T13:10:12.513Z,99993.02
2019-02-18T13:12:41.901Z,99990.93
2019-02-18T13:15:15.816Z,99983.80
2019-02-18T13:17:44.200Z,99985.41
2019-02-18T13:20:13.192Z,99982.77
2019-02-18T13:22:42.286Z,99983.80
2019-02-18T13:25:11.365Z,99976.12
2019-02-18T13:27:40.077Z,99976.27
2019-02-18T13:30:20.457Z,99970.44
2019-02-18T13:32:49.255Z,99978.12
2019-02-18T13:35:18.063Z,99963.83
2019-02-18T13:37:46.876Z,99965.64
2019-02-18T13:40:18.617Z,99965.92
2019-02-18T13:42:47.652Z,99958.95
2019-02-18T13:45:16.522Z,99961.17
2019-02-18T13:47:45.255Z,99956.48
2019-02-18T13:50:14.768Z,99954.50
2019-02-18T13:52:43.504Z,99958.69
2019-02-18T13:55:15.499Z,99947.33
2019-02-18T13:57:44.615Z,99953.79
2019-02-18T14:00:19.431Z,99952.23
2019-02-18T14:02:49.258Z,99946.58
2019-02-18T14:05:19.976Z,99947.09
2019-02-18T14:07:48.653Z,99951.45
2019-02-18T14:10:17.907Z,99943.77
2019-02-18T14:12:46.705Z,99947.83
2019-02-18T14:15:16.196Z,99942.66
2019-02-18T14:17:44.945Z,99952.56
2019-02-18T14:20:15.342Z,99945.52
2019-02-18T14:22:44.135Z,99948.70
2019-02-18T14:25:13.261Z,99939.80
2019-02-18T14:27:42.066Z,99952.57
2019-02-18T14:30:15.976Z,99937.66
2019-02-18T14:32:44.276Z,99941.39
2019-02-18T14:35:13.350Z,99934.84
2019-02-18T14:37:42.103Z,99935.31
2019-02-18T14:40:12.779Z,99933.05
2019-02-18T14:42:41.576Z,99939.92
2019-02-18T14:45:10.751Z,99936.59
2019-02-18T14:47:39.819Z,99930.41
2019-02-18T14:50:10.407Z,99933.48
2019-02-18T14:52:39.297Z,99932.42
2019-02-18T14:55:09.324Z,99929.85
2019-02-18T14:57:38.282Z,99930.78
2019-02-18T15:00:20.150Z,99926.26
2019-02-18T15:02:49.265Z,99932.76
2019-02-18T15:05:18.148Z,99924.19
2019-02-18T15:07:46.856Z,99921.06
2019-02-18T15:10:16.295Z,99925.78
2019-02-18T15:12:45.119Z,99921.59
2019-02-18T15:15:13.895Z,99914.34
2019-02-18T15:17:42.533Z,99911.61
2019-02-18T15:20:11.646Z,99912.59
2019-02-18T15:22:41.260Z,99913.47
2019-02-18T15:25:13.571Z,99906.70
2019-02-18T15:27:42.263Z,99902.15
2019-02-18T15:30:13.875Z,99905.84
2019-02-18T15:32:42.669Z,99905.45
2019-02-18T15:35:11.672Z,99898.03
2019-02-18T15:37:40.611Z,99898.03
2019-02-18T15:40:11.197Z,99889.41
2019-02-18T15:42:42.337Z,99885.95
2019-02-18T15:45:10.505Z,99891.75
2019-02-18T15:47:39.607Z,99887.28
2019-02-18T15:50:11.181Z,99878.11
2019-02-18T15:52:39.869Z,99882.41
2019-02-18T15:55:09.270Z,99890.62
2019-02-18T15:57:38.502Z,99885.23
2019-02-18T16:00:13.318Z,99884.70
2019-02-18T16:02:42.050Z,99887.22
2019-02-18T16:05:10.775Z,99882.36
2019-02-18T16:07:40.431Z,99881.50
2019-02-18T16:10:10.160Z,99880.33
2019-02-18T16:12:38.908Z,99877.17
2019-02-18T16:15:10.207Z,99877.86
2019-02-18T16:17:42.356Z,99879.94
2019-02-18T16:20:14.779Z,99880.95
2019-02-18T16:22:45.469Z,99880.72
2019-02-18T16:25:21.078Z,99879.64
2019-02-18T16:27:51.349Z,99875.91
2019-02-18T16:30:22.020Z,99876.30
2019-02-18T16:32:52.617Z,99882.59
2019-02-18T16:35:21.423Z,99876.21
2019-02-18T16:37:50.294Z,99876.77
2019-02-18T16:40:19.281Z,99872.94
2019-02-18T16:42:48.006Z,99867.73
2019-02-18T16:45:16.762Z,99873.43
2019-02-18T16:47:45.437Z,99872.91
2019-02-18T16:50:14.141Z,99876.49
2019-02-18T16:52:42.876Z,99878.53
2019-02-18T16:55:16.177Z,99882.73
2019-02-18T16:57:44.905Z,99884.77
2019-02-18T17:00:21.260Z,99883.99
2019-02-18T17:02:51.006Z,99886.05
2019-02-18T17:05:19.887Z,99886.20
2019-02-18T17:07:48.586Z,99888.73
2019-02-18T17:10:17.233Z,99890.00
2019-02-18T17:12:46.376Z,99887.06
2019-02-18T17:15:16.775Z,99884.02
2019-02-18T17:17:47.260Z,99883.48
2019-02-18T17:20:17.679Z,99879.01
2019-02-18T17:22:48.295Z,99881.88
2019-02-18T17:25:18.203Z,99876.66
2019-02-18T17:27:49.415Z,99876.65
2019-02-18T17:30:19.176Z,99874.80
2019-02-18T17:32:49.900Z,99873.45
2019-02-18T17:35:20.631Z,99875.97
2019-02-18T17:37:51.022Z,99872.67
2019-02-18T17:40:21.178Z,99873.17
2019-02-18T17:42:51.611Z,99875.27
2019-02-18T17:45:22.228Z,99866.13
2019-02-18T17:47:51.976Z,99862.75
2019-02-18T17:50:22.375Z,99862.77
2019-02-18T17:52:53.675Z,99861.48
2019-02-18T17:55:24.781Z,99855.89
2019-02-18T17:57:54.319Z,99857.66
2019-02-18T18:00:32.008Z,99856.36
2019-02-18T18:03:02.217Z,99849.58
2019-02-18T18:05:31.691Z,99853.29
2019-02-18T18:08:01.697Z,99850.77
2019-02-18T18:10:31.975Z,99854.97
2019-02-18T18:13:02.695Z,99854.37
2019-02-18T18:15:31.815Z,99847.28
2019-02-18T18:18:01.334Z,99844.20
2019-02-18T18:20:30.280Z,99837.81
2019-02-18T18:22:59.943Z,99846.80
2019-02-18T18:25:28.817Z,99845.30
2019-02-18T18:27:58.432Z,99847.31
2019-02-18T18:30:29.136Z,99844.34
2019-02-18T18:32:58.174Z,99845.09
2019-02-18T18:35:28.524Z,99846.11
2019-02-18T18:37:58.544Z,99842.00
2019-02-18T18:40:29.095Z,99843.88
2019-02-18T18:42:57.910Z,99844.27
2019-02-18T18:45:28.407Z,99841.84
2019-02-18T18:47:59.030Z,99846.86
2019-02-18T18:50:29.428Z,99841.51
2019-02-18T18:52:59.161Z,99839.86
2019-02-18T18:55:29.259Z,99839.05
2019-02-18T18:57:58.164Z,99836.51
2019-02-18T19:00:27.610Z,99843.34
2019-02-18T19:02:58.244Z,99835.61
2019-02-18T19:05:28.506Z,99835.52
2019-02-18T19:07:57.211Z,99829.22
2019-02-18T19:10:26.506Z,99832.80
2019-02-18T19:12:57.272Z,99833.36
2019-02-18T19:15:26.705Z,99829.74
2019-02-18T19:17:57.746Z,99826.91
2019-02-18T19:20:28.348Z,99824.73
2019-02-18T19:22:59.190Z,99832.16
2019-02-18T19:25:29.582Z,99829.53
2019-02-18T19:28:01.586Z,99831.76
2019-02-18T19:30:33.980Z,99827.44
2019-02-18T19:33:04.648Z,99825.08
2019-02-18T19:35:35.503Z,99827.50
2019-02-18T19:38:06.065Z,99825.78
2019-02-18T19:40:38.018Z,99823.89
2019-02-18T19:43:07.610Z,99823.27
2019-02-18T19:45:38.225Z,99823.86
2019-02-18T19:48:08.956Z,99828.36
2019-02-18T19:50:39.341Z,99827.05
2019-02-18T19:53:09.511Z,99819.21
2019-02-18T19:55:40.146Z,99827.14
2019-02-18T19:58:10.865Z,99825.11
2019-02-18T20:00:41.907Z,99827.83
2019-02-18T20:03:12.306Z,99831.53
2019-02-18T20:05:42.456Z,99829.45
2019-02-18T20:08:13.100Z,99830.56
2019-02-18T20:10:43.500Z,99823.52
2019-02-18T20:13:15.183Z,99824.59
2019-02-18T20:15:45.898Z,99822.04
2019-02-18T20:18:15.894Z,99816.34
2019-02-18T20:20:46.162Z,99823.20
2019-02-18T20:23:16.658Z,99817.95
2019-02-18T20:25:46.925Z,99819.83
2019-02-18T20:28:17.575Z,99821.66
2019-02-18T20:30:48.305Z,99824.25
2019-02-18T20:33:18.710Z,99824.44
2019-02-18T20:35:49.165Z,99819.91
2019-02-18T20:38:18.982Z,99817.70
2019-02-18T20:40:49.312Z,99827.51
2019-02-18T20:43:19.431Z,99815.03
2019-02-18T20:45:50.069Z,99814.14
2019-02-18T20:48:18.962Z,99812.71
2019-02-18T20:50:48.930Z,99809.64
2019-02-18T20:53:19.337Z,99810.62
2019-02-18T20:55:49.608Z,99809.59
2019-02-18T20:58:20.136Z,99804.84
2019-02-18T21:00:50.860Z,99806.64
2019-02-18T21:03:21.906Z,99802.13
2019-02-18T21:05:52.680Z,99805.91
2019-02-18T21:08:23.088Z,99799.47
2019-02-18T21:10:53.683Z,99799.88
2019-02-18T21:13:24.634Z,99803.81
2019-02-18T21:15:55.816Z,99802.24
2019-02-18T21:18:25.575Z,99799.43
2019-02-18T21:20:56.071Z,99799.51
2019-02-18T21:23:26.695Z,99802.13
2019-02-18T21:25:57.485Z,99791.54
2019-02-18T21:28:27.814Z,99793.78
2019-02-18T21:30:58.275Z,99792.17
2019-02-18T21:33:28.615Z,99790.96
2019-02-18T21:35:58.766Z,99789.70
2019-02-18T21:38:29.107Z,99787.81
2019-02-18T21:40:58.378Z,99782.23
2019-02-18T21:43:27.989Z,99782.23
2019-02-18T21:45:57.736Z,99784.49
2019-02-18T21:48:26.511Z,99781.30
2019-02-18T21:50:55.789Z,99778.30
2019-02-18T21:53:25.209Z,99782.70
2019-02-18T21:55:53.904Z,99789.48
2019-02-18T21:58:23.076Z,99785.63
2019-02-18T22:00:51.818Z,99788.03
2019-02-18T22:03:20.746Z,99785.86
2019-02-18T22:05:49.415Z,99780.08
2019-02-18T22:08:18.311Z,99783.13
2019-02-18T22:10:47.021Z,99779.33
2019-02-18T22:13:15.815Z,99780.66
2019-02-18T22:15:44.717Z,99776.84
2019-02-18T22:18:13.415Z,99776.12
2019-02-18T22:20:42.240Z,99783.22
2019-02-18T22:23:11.036Z,99787.14
2019-02-18T22:25:39.704Z,99772.73
2019-02-18T22:28:08.336Z,99770.48
2019-02-18T22:30:37.416Z,99770.88
2019-02-18T22:33:06.285Z,99770.64
2019-02-18T22:35:35.077Z,99758.80
2019-02-18T22:38:03.855Z,99766.70
2019-02-18T22:40:32.475Z,99766.95
2019-02-18T22:43:01.425Z,99764.02
2019-02-18T22:45:30.325Z,99758.27
2019-02-18T22:47:59.365Z,99762.96
2019-02-18T22:50:28.215Z,99765.60
2019-02-18T22:52:56.894Z,99759.73
2019-02-18T22:55:25.766Z,99759.75
2019-02-18T22:57:54.555Z,99754.27
2019-02-18T23:00:31.136Z,99764.52
2019-02-18T23:03:00.221Z,99759.27
2019-02-18T23:05:29.015Z,99759.32
2019-02-18T23:07:57.684Z,99753.02
2019-02-18T23:10:26.575Z,99750.08
2019-02-18T23:12:55.365Z,99751.95
2019-02-18T23:15:24.151Z,99750.17
2019-02-18T23:17:53.666Z,99746.41
2019-02-18T23:20:22.450Z,99750.41
2019-02-18T23:22:51.230Z,99753.91
2019-02-18T23:25:20.015Z,99751.28
2019-02-18T23:27:48.660Z,99747.44
2019-02-18T23:30:17.591Z,99746.55
2019-02-18T23:32:46.252Z,99745.19
2019-02-18T23:35:15.496Z,99743.00
2019-02-18T23:37:44.366Z,99745.59
2019-02-18T23:40:13.155Z,99737.69
2019-02-18T23:42:41.895Z,99746.73
2019-02-18T23:45:10.717Z,99739.39
2019-02-18T23:47:39.628Z,99744.67
2019-02-18T23:50:08.285Z,99731.67
2019-02-18T23:52:37.191Z,99730.33
2019-02-18T23:55:06.885Z,99732.58
2019-02-18T23:57:35.676Z,99734.75
